Time;durP1;ratioP1;P1;durP2;ratioP2;P2;SDS_P1;SDS_P2;PMS_P1;PMS_P2;Temp;Humidity;BMP_temperature;BMP_pressure;BME280_temperature;BME280_humidity;BME280_pressure;Samples;Min_cycle;Max_cycle;Signal;HPM_P1;HPM_P2
2023/06/19 00:02:01;;;;;;;6.72;6.03;;;25.00;99.90;;;;;;5051626;28;20037;-60
2023/06/19 00:04:27;;;;;;;7.32;6.60;;;24.90;99.90;;;;;;5052577;28;20051;-60
2023/06/19 00:06:54;;;;;;;7.53;6.82;;;24.90;99.90;;;;;;5051393;28;20080;-60
2023/06/19 00:09:19;;;;;;;10.50;7.10;;;24.90;99.90;;;;;;5050263;28;20044;-60
2023/06/19 00:11:45;;;;;;;8.88;6.70;;;24.80;99.90;;;;;;5051556;28;20029;-60
2023/06/19 00:14:11;;;;;;;9.43;7.43;;;24.80;99.90;;;;;;5052523;28;20063;-60
2023/06/19 00:16:36;;;;;;;8.35;7.50;;;24.80;99.90;;;;;;5051435;28;20478;-61
2023/06/19 00:19:03;;;;;;;8.95;8.15;;;24.90;99.90;;;;;;5051118;28;20142;-60
2023/06/19 00:21:29;;;;;;;10.25;7.68;;;24.90;99.90;;;;;;5047047;28;20096;-61
2023/06/19 00:23:55;;;;;;;8.52;7.72;;;24.80;99.90;;;;;;5053148;28;20116;-60
2023/06/19 00:26:22;;;;;;;8.70;7.80;;;24.90;99.90;;;;;;5054149;28;20167;-60
2023/06/19 00:28:51;;;;;;;9.05;8.23;;;24.90;99.90;;;;;;5049494;28;20025;-60
2023/06/19 00:31:18;;;;;;;9.13;8.02;;;24.90;99.90;;;;;;5055498;28;20059;-60
2023/06/19 00:33:45;;;;;;;10.05;8.30;;;24.80;99.90;;;;;;5055219;28;20013;-61
2023/06/19 00:36:12;;;;;;;9.38;8.50;;;24.80;99.90;;;;;;5051138;28;20021;-60
2023/06/19 00:38:40;;;;;;;9.68;8.88;;;24.80;99.90;;;;;;5055382;28;20029;-60
2023/06/19 00:41:06;;;;;;;9.30;7.88;;;24.80;99.90;;;;;;5053241;28;20057;-60
2023/06/19 00:43:33;;;;;;;8.80;7.85;;;24.80;99.90;;;;;;5056214;28;20044;-60
2023/06/19 00:45:59;;;;;;;9.95;8.98;;;24.80;99.90;;;;;;5054960;28;20045;-60
2023/06/19 00:48:27;;;;;;;9.10;8.30;;;24.80;99.90;;;;;;5055734;28;20098;-60
2023/06/19 00:50:52;;;;;;;10.13;8.57;;;24.80;1.00;;;;;;5055094;28;20040;-60
2023/06/19 00:53:19;;;;;;;9.20;8.18;;;24.80;99.90;;;;;;5048964;28;20467;-60
2023/06/19 00:55:47;;;;;;;10.50;8.52;;;24.80;1.00;;;;;;5054722;28;20033;-60
2023/06/19 00:58:13;;;;;;;10.93;9.25;;;24.80;99.90;;;;;;5055656;28;20112;-60
2023/06/19 01:00:38;;;;;;;10.90;7.95;;;24.80;99.90;;;;;;5053214;28;20063;-61
2023/06/19 01:03:04;;;;;;;9.23;8.32;;;24.80;99.90;;;;;;5053646;28;20032;-60
2023/06/19 01:05:30;;;;;;;9.30;8.30;;;24.90;99.90;;;;;;5055385;28;20044;-60
2023/06/19 01:08:07;;;;;;;11.27;8.73;;;24.80;1.00;;;;;;5055291;28;20037;-61
2023/06/19 01:10:44;;;;;;;9.38;8.35;;;24.80;1.00;;;;;;5051615;28;20029;-60
2023/06/19 01:13:24;;;;;;;10.63;8.90;;;24.80;1.00;;;;;;5041505;28;20037;-60
2023/06/19 01:15:50;;;;;;;9.45;8.55;;;24.80;1.00;;;;;;5053367;28;20053;-61
2023/06/19 01:18:16;;;;;;;10.05;8.95;;;24.70;1.00;;;;;;5040736;28;20427;-61
2023/06/19 01:20:42;;;;;;;10.40;8.90;;;24.70;1.00;;;;;;5049195;28;20047;-61
2023/06/19 01:23:09;;;;;;;9.77;8.68;;;24.80;1.00;;;;;;5054981;28;20405;-60
2023/06/19 01:25:35;;;;;;;9.05;8.07;;;24.80;1.00;;;;;;5052694;28;20114;-60
2023/06/19 01:28:09;;;;;;;10.07;9.18;;;24.80;1.00;;;;;;5053954;28;20032;-60
2023/06/19 01:30:35;;;;;;;9.90;9.05;;;24.70;1.00;;;;;;5052768;28;20551;-61
2023/06/19 01:33:20;;;;;;;8.93;7.97;;;24.80;1.00;;;;;;5054247;28;20374;-60
2023/06/19 01:35:47;;;;;;;9.85;8.95;;;24.70;1.00;;;;;;5052129;28;20174;-60
2023/06/19 01:38:14;;;;;;;9.90;9.00;;;24.50;1.00;;;;;;5041211;28;20386;-60
2023/06/19 01:40:40;;;;;;;9.38;8.57;;;24.40;1.00;;;;;;5052834;28;20017;-60
2023/06/19 01:43:08;;;;;;;9.07;8.27;;;24.40;1.00;;;;;;5047681;28;20094;-60
2023/06/19 01:45:33;;;;;;;9.85;8.55;;;24.20;1.00;;;;;;5047558;28;20316;-60
2023/06/19 01:47:59;;;;;;;8.93;8.00;;;24.30;1.00;;;;;;5052911;28;20035;-60
2023/06/19 01:50:25;;;;;;;9.82;8.82;;;24.40;1.00;;;;;;5053387;28;20021;-60
2023/06/19 01:52:52;;;;;;;10.73;8.43;;;24.40;1.00;;;;;;5045292;28;20025;-60
2023/06/19 01:55:18;;;;;;;9.73;8.90;;;24.20;1.00;;;;;;5054443;28;20099;-60
2023/06/19 01:57:45;;;;;;;10.43;9.32;;;24.30;1.00;;;;;;5053691;28;20027;-60
2023/06/19 02:00:11;;;;;;;9.23;8.50;;;24.30;1.00;;;;;;5051391;28;20013;-60
2023/06/19 02:02:37;;;;;;;9.20;8.45;;;24.20;1.00;;;;;;5055006;28;20029;-60
2023/06/19 02:05:04;;;;;;;9.63;8.57;;;24.30;99.90;;;;;;5053458;28;20106;-60
2023/06/19 02:07:30;;;;;;;11.35;8.25;;;24.20;1.00;;;;;;5051839;28;20044;-60
2023/06/19 02:09:56;;;;;;;9.15;8.18;;;24.20;1.00;;;;;;5053602;28;20025;-60
2023/06/19 02:12:22;;;;;;;9.18;8.38;;;24.20;1.00;;;;;;5053340;28;20033;-60
2023/06/19 02:14:47;;;;;;;9.23;8.32;;;24.20;99.90;;;;;;5054534;28;20439;-60
2023/06/19 02:17:13;;;;;;;8.35;7.65;;;24.30;99.90;;;;;;5053421;28;20394;-61
2023/06/19 02:19:39;;;;;;;8.05;7.35;;;24.40;99.90;;;;;;5051684;28;20075;-60
2023/06/19 02:22:06;;;;;;;10.23;8.40;;;24.40;99.90;;;;;;5052740;28;20189;-60
2023/06/19 02:24:32;;;;;;;8.38;7.35;;;24.40;99.90;;;;;;5049512;28;20057;-60
2023/06/19 02:26:58;;;;;;;8.38;7.57;;;24.40;99.90;;;;;;5054063;28;20384;-60
2023/06/19 02:29:24;;;;;;;9.38;7.95;;;24.40;99.90;;;;;;5052478;28;20117;-60
2023/06/19 02:31:50;;;;;;;9.13;8.25;;;24.40;99.90;;;;;;5051312;28;20071;-60
2023/06/19 02:34:16;;;;;;;7.63;6.97;;;24.40;99.90;;;;;;5053836;28;20067;-60
2023/06/19 02:36:42;;;;;;;7.95;7.15;;;24.50;99.90;;;;;;5052157;28;20059;-60
2023/06/19 02:39:08;;;;;;;8.10;6.70;;;24.50;99.90;;;;;;5054108;28;20025;-60
2023/06/19 02:41:35;;;;;;;7.50;6.90;;;24.40;99.90;;;;;;5051981;28;20467;-60
2023/06/19 02:44:01;;;;;;;7.68;6.60;;;24.50;99.90;;;;;;5052563;28;20078;-60
2023/06/19 02:46:27;;;;;;;7.45;6.75;;;24.40;99.90;;;;;;5043744;28;20029;-60
2023/06/19 02:48:53;;;;;;;9.80;7.07;;;24.40;99.90;;;;;;5053566;28;20455;-60
2023/06/19 02:51:18;;;;;;;6.63;6.03;;;24.40;99.90;;;;;;5052484;28;20127;-60
2023/06/19 02:53:44;;;;;;;7.80;6.75;;;24.40;99.90;;;;;;5053314;28;20040;-60
2023/06/19 02:56:12;;;;;;;6.90;6.30;;;24.40;99.90;;;;;;5052304;28;20040;-60
2023/06/19 02:58:38;;;;;;;6.80;6.20;;;24.30;99.90;;;;;;5050031;28;20085;-60
2023/06/19 03:01:06;;;;;;;6.70;6.07;;;24.40;99.90;;;;;;5043936;28;20022;-60
2023/06/19 03:03:37;;;;;;;7.03;6.32;;;24.40;99.90;;;;;;5047022;28;20029;-60
2023/06/19 03:06:06;;;;;;;7.28;6.65;;;24.50;99.90;;;;;;5051965;28;20490;-59
2023/06/19 03:08:36;;;;;;;6.35;5.68;;;24.30;99.90;;;;;;5052422;28;20425;-59
2023/06/19 03:11:05;;;;;;;6.57;5.90;;;24.40;99.90;;;;;;5050751;28;20490;-59
2023/06/19 03:13:53;;;;;;;6.30;5.70;;;24.30;99.90;;;;;;5052203;28;20513;-59
2023/06/19 03:16:20;;;;;;;6.43;5.93;;;24.30;99.90;;;;;;5042548;28;20017;-59
2023/06/19 03:18:46;;;;;;;6.35;5.60;;;24.30;99.90;;;;;;5052928;28;20029;-59
2023/06/19 03:21:15;;;;;;;7.00;6.35;;;24.40;99.90;;;;;;5051994;28;20052;-59
2023/06/19 03:23:41;;;;;;;6.50;6.00;;;24.30;99.90;;;;;;5053055;28;20084;-58
2023/06/19 03:26:08;;;;;;;6.50;5.90;;;24.30;99.90;;;;;;5050444;28;20077;-59
2023/06/19 03:28:34;;;;;;;6.68;5.68;;;24.20;99.90;;;;;;5048231;28;20079;-59
2023/06/19 03:31:00;;;;;;;6.07;5.43;;;24.20;99.90;;;;;;5048611;28;20029;-59
2023/06/19 03:33:26;;;;;;;6.00;5.50;;;24.20;99.90;;;;;;5052161;28;20101;-59
2023/06/19 03:35:52;;;;;;;5.50;5.00;;;24.30;99.90;;;;;;5052831;28;20108;-59
2023/06/19 03:38:17;;;;;;;5.53;4.80;;;24.40;99.90;;;;;;5050819;28;20134;-59
2023/06/19 03:40:43;;;;;;;5.68;5.00;;;24.20;99.90;;;;;;5052773;28;20055;-59
2023/06/19 03:43:10;;;;;;;6.07;5.53;;;24.30;99.90;;;;;;5051713;28;20380;-59
2023/06/19 03:45:36;;;;;;;6.32;5.72;;;24.20;99.90;;;;;;5051263;28;20120;-59
2023/06/19 03:48:01;;;;;;;6.05;5.57;;;24.30;99.90;;;;;;5052882;28;20472;-59
2023/06/19 03:50:27;;;;;;;6.47;5.80;;;24.30;99.90;;;;;;5050639;28;20846;-59
2023/06/19 03:52:53;;;;;;;6.20;5.57;;;24.30;99.90;;;;;;5053009;28;20112;-59
2023/06/19 03:55:18;;;;;;;7.50;5.55;;;24.30;99.90;;;;;;5051391;28;20017;-59
2023/06/19 03:57:44;;;;;;;6.18;5.57;;;24.30;99.90;;;;;;5053571;28;20033;-59
2023/06/19 04:00:12;;;;;;;7.13;6.45;;;24.20;99.90;;;;;;5054111;28;20082;-59
2023/06/19 04:02:39;;;;;;;6.45;5.95;;;24.10;99.90;;;;;;5055886;28;20029;-59
2023/06/19 04:05:05;;;;;;;6.55;6.05;;;24.00;99.90;;;;;;5056771;28;20075;-59
2023/06/19 04:07:31;;;;;;;7.63;5.38;;;24.00;99.90;;;;;;5055588;28;20029;-59
2023/06/19 04:09:58;;;;;;;6.30;5.75;;;24.10;99.90;;;;;;5054878;28;20551;-59
2023/06/19 04:12:24;;;;;;;6.90;6.30;;;24.20;99.90;;;;;;5054260;28;20195;-59
2023/06/19 04:14:49;;;;;;;6.20;5.70;;;24.10;99.90;;;;;;5056875;28;20127;-59
2023/06/19 04:17:15;;;;;;;9.88;6.55;;;24.10;99.90;;;;;;5054562;28;20033;-59
2023/06/19 04:19:41;;;;;;;8.10;5.55;;;23.90;99.90;;;;;;5053962;28;20099;-59
2023/06/19 04:22:07;;;;;;;6.90;6.13;;;24.10;99.90;;;;;;5056309;28;20071;-59
2023/06/19 04:24:32;;;;;;;6.28;5.18;;;24.00;99.90;;;;;;5054807;28;20049;-59
2023/06/19 04:26:58;;;;;;;6.47;5.93;;;23.90;99.90;;;;;;5053986;28;20390;-59
2023/06/19 04:29:24;;;;;;;7.25;6.50;;;23.90;99.90;;;;;;5054240;28;20021;-59
2023/06/19 04:31:50;;;;;;;7.50;6.38;;;23.80;99.90;;;;;;5056180;28;20068;-59
2023/06/19 04:34:21;;;;;;;9.32;6.00;;;23.90;99.90;;;;;;5055207;28;20534;-59
2023/06/19 04:36:47;;;;;;;6.28;5.68;;;23.90;99.90;;;;;;5056051;28;20486;-59
2023/06/19 04:39:14;;;;;;;7.38;6.25;;;23.80;99.90;;;;;;5054538;28;20079;-59
2023/06/19 04:41:41;;;;;;;8.00;6.55;;;23.80;99.90;;;;;;5054299;28;20087;-59
2023/06/19 04:44:07;;;;;;;7.55;6.45;;;23.80;99.90;;;;;;5055825;28;20075;-59
2023/06/19 04:46:33;;;;;;;6.85;6.22;;;23.90;99.90;;;;;;5052274;28;20478;-59
2023/06/19 04:48:59;;;;;;;9.35;6.10;;;23.80;99.90;;;;;;5055913;28;20060;-59
2023/06/19 04:51:26;;;;;;;7.13;6.40;;;23.90;99.90;;;;;;5053475;28;20425;-60
2023/06/19 04:53:52;;;;;;;7.63;6.95;;;23.90;99.90;;;;;;5055793;28;20024;-60
2023/06/19 04:56:17;;;;;;;6.80;6.10;;;23.90;99.90;;;;;;5054797;28;20029;-59
2023/06/19 04:58:47;;;;;;;6.82;6.13;;;23.90;99.90;;;;;;5055581;28;20467;-59
2023/06/19 05:01:15;;;;;;;5.90;5.40;;;23.80;99.90;;;;;;5053189;28;20017;-59
2023/06/19 05:03:43;;;;;;;6.05;5.55;;;23.90;99.90;;;;;;5054627;28;20021;-59
2023/06/19 05:06:09;;;;;;;7.90;6.03;;;23.80;99.90;;;;;;5052474;28;20067;-59
2023/06/19 05:08:35;;;;;;;7.05;5.60;;;23.90;99.90;;;;;;5054427;28;20021;-59
2023/06/19 05:11:00;;;;;;;8.52;5.53;;;24.00;99.90;;;;;;5053416;28;20178;-59
2023/06/19 05:13:26;;;;;;;5.70;5.22;;;24.10;99.90;;;;;;5048778;28;20028;-59
2023/06/19 05:15:52;;;;;;;6.07;5.35;;;24.20;99.90;;;;;;5045116;28;20028;-59
2023/06/19 05:18:18;;;;;;;6.72;6.00;;;24.00;99.90;;;;;;5041300;28;20387;-59
2023/06/19 05:20:43;;;;;;;6.75;6.15;;;24.00;99.90;;;;;;5043083;28;20492;-59
2023/06/19 05:23:09;;;;;;;6.90;5.88;;;23.90;99.90;;;;;;5055138;28;20033;-59
2023/06/19 05:25:35;;;;;;;6.13;5.53;;;24.00;99.90;;;;;;5053672;28;20483;-59
2023/06/19 05:28:01;;;;;;;6.97;6.03;;;24.00;99.90;;;;;;5055073;28;20055;-59
2023/06/19 05:30:26;;;;;;;8.77;6.40;;;24.10;99.90;;;;;;5054082;28;20021;-59
2023/06/19 05:32:52;;;;;;;9.60;6.00;;;24.10;99.90;;;;;;5052831;28;20048;-59
2023/06/19 05:35:17;;;;;;;7.03;6.32;;;24.10;99.90;;;;;;5053766;28;20413;-59
2023/06/19 05:37:43;;;;;;;9.35;6.40;;;24.30;99.90;;;;;;5052545;28;20029;-59
2023/06/19 05:40:12;;;;;;;8.75;6.78;;;24.30;99.90;;;;;;5052363;28;20112;-58
2023/06/19 05:42:38;;;;;;;7.90;5.85;;;24.40;99.90;;;;;;5054794;28;20033;-59
2023/06/19 05:45:04;;;;;;;8.70;6.75;;;24.50;99.90;;;;;;5053301;28;20017;-59
2023/06/19 05:47:30;;;;;;;7.03;6.40;;;24.40;99.90;;;;;;5054652;28;20098;-59
2023/06/19 05:49:56;;;;;;;7.35;6.57;;;24.50;99.90;;;;;;5041096;28;20480;-59
2023/06/19 05:52:25;;;;;;;7.00;6.40;;;24.60;99.90;;;;;;5051692;28;20402;-60
2023/06/19 05:54:53;;;;;;;6.55;5.78;;;24.70;99.90;;;;;;5047644;28;20029;-59
2023/06/19 05:57:21;;;;;;;6.82;6.03;;;24.70;99.90;;;;;;5051611;28;20094;-59
2023/06/19 05:59:47;;;;;;;6.63;5.97;;;24.70;99.90;;;;;;5053307;28;20029;-60
2023/06/19 06:02:13;;;;;;;6.53;5.53;;;24.80;99.90;;;;;;5053849;28;20017;-59
2023/06/19 06:04:39;;;;;;;9.23;5.93;;;24.80;99.90;;;;;;5054504;28;20021;-59
2023/06/19 06:07:05;;;;;;;7.22;5.55;;;24.70;99.90;;;;;;5052134;28;20037;-59
2023/06/19 06:09:32;;;;;;;7.25;6.40;;;24.70;99.90;;;;;;5054309;28;20036;-59
2023/06/19 06:11:58;;;;;;;7.85;6.18;;;24.70;99.90;;;;;;5049837;28;20037;-60
2023/06/19 06:14:24;;;;;;;7.78;6.95;;;24.70;99.90;;;;;;5054260;28;20386;-59
2023/06/19 06:16:49;;;;;;;7.85;6.45;;;24.80;99.90;;;;;;5053295;28;20237;-60
2023/06/19 06:19:15;;;;;;;6.72;6.25;;;25.00;99.90;;;;;;5052747;28;20021;-59
2023/06/19 06:21:41;;;;;;;7.60;6.70;;;25.10;99.90;;;;;;5054355;28;20028;-59
2023/06/19 06:24:07;;;;;;;9.50;7.28;;;25.20;99.90;;;;;;5052837;28;20037;-59
2023/06/19 06:26:33;;;;;;;6.75;6.15;;;25.30;99.90;;;;;;5051583;28;20036;-59
2023/06/19 06:28:59;;;;;;;9.10;6.75;;;25.40;99.90;;;;;;5053920;28;20021;-59
2023/06/19 06:31:24;;;;;;;7.93;7.22;;;25.20;99.90;;;;;;5050377;28;20043;-59
2023/06/19 06:33:50;;;;;;;8.90;7.10;;;25.20;99.90;;;;;;5053908;28;20061;-59
2023/06/19 06:36:16;;;;;;;8.68;6.97;;;25.20;99.90;;;;;;5052104;28;20474;-59
2023/06/19 06:38:42;;;;;;;7.50;6.78;;;25.20;99.90;;;;;;5053738;28;20029;-59
2023/06/19 06:41:08;;;;;;;11.35;7.78;;;25.20;99.90;;;;;;5051089;28;20538;-59
2023/06/19 06:43:34;;;;;;;8.60;7.75;;;25.20;99.90;;;;;;5043097;28;20025;-59
2023/06/19 06:45:59;;;;;;;11.25;6.80;;;25.20;99.90;;;;;;5051280;28;20041;-59
2023/06/19 06:48:25;;;;;;;7.82;7.05;;;25.20;99.90;;;;;;5038799;28;20485;-59
2023/06/19 06:50:58;;;;;;;8.55;7.75;;;25.20;99.90;;;;;;5050275;28;20035;-59
2023/06/19 06:53:25;;;;;;;8.07;7.25;;;25.20;99.90;;;;;;5052999;28;20036;-59
2023/06/19 06:55:51;;;;;;;10.88;7.97;;;25.10;99.90;;;;;;5052584;28;20394;-59
2023/06/19 06:58:18;;;;;;;9.73;8.70;;;25.20;99.90;;;;;;5051039;28;20029;-67
2023/06/19 07:00:44;;;;;;;11.63;9.15;;;25.20;99.90;;;;;;5050976;28;20025;-63
2023/06/19 07:03:09;;;;;;;11.40;8.55;;;25.40;99.90;;;;;;5053653;28;20115;-61
2023/06/19 07:05:35;;;;;;;9.35;8.45;;;25.40;99.90;;;;;;5049574;28;20597;-66
2023/06/19 07:08:01;;;;;;;13.57;8.82;;;25.50;99.90;;;;;;5050646;28;20033;-65
2023/06/19 07:10:27;;;;;;;10.50;8.85;;;25.60;99.90;;;;;;5049756;28;20024;-69
2023/06/19 07:12:53;;;;;;;8.77;7.93;;;25.70;99.90;;;;;;5041651;28;20051;-69
2023/06/19 07:15:18;;;;;;;10.65;9.10;;;25.70;99.90;;;;;;5040296;28;20029;-61
2023/06/19 07:17:45;;;;;;;10.18;9.27;;;25.70;99.90;;;;;;5049358;28;20017;-71
2023/06/19 07:20:10;;;;;;;11.55;10.38;;;25.80;99.90;;;;;;5050350;28;20478;-66
2023/06/19 07:22:36;;;;;;;11.68;10.40;;;25.90;99.90;;;;;;5046892;28;20025;-61
2023/06/19 07:25:03;;;;;;;10.35;9.32;;;25.80;99.90;;;;;;5039942;28;20076;-66
2023/06/19 07:27:29;;;;;;;9.75;8.90;;;25.80;99.90;;;;;;5052033;28;20487;-59
2023/06/19 07:29:55;;;;;;;10.18;9.18;;;25.70;99.90;;;;;;5046407;28;20426;-62
2023/06/19 07:32:21;;;;;;;9.52;8.65;;;25.70;99.90;;;;;;5038501;28;20034;-56
2023/06/19 07:34:46;;;;;;;12.25;10.65;;;25.70;99.90;;;;;;5050777;28;20033;-69
2023/06/19 07:37:17;;;;;;;10.27;9.18;;;25.70;99.90;;;;;;5047965;28;20098;-66
2023/06/19 07:39:48;;;;;;;10.88;9.70;;;25.60;99.90;;;;;;5046697;28;20033;-65
2023/06/19 07:42:14;;;;;;;11.48;8.43;;;25.80;99.90;;;;;;5049323;28;20029;-67
2023/06/19 07:44:40;;;;;;;9.82;8.93;;;25.70;99.90;;;;;;5052606;28;20033;-70
2023/06/19 07:47:07;;;;;;;11.48;10.38;;;25.70;99.90;;;;;;5051769;28;20130;-71
2023/06/19 07:49:33;;;;;;;11.13;9.98;;;25.90;99.90;;;;;;5052931;28;20052;-70
2023/06/19 07:51:58;;;;;;;14.45;10.57;;;26.00;99.90;;;;;;5050076;28;20110;-68
2023/06/19 07:54:24;;;;;;;10.77;9.70;;;26.00;99.90;;;;;;5051818;28;20037;-64
2023/06/19 07:56:49;;;;;;;9.98;9.05;;;26.00;99.90;;;;;;5050044;28;20099;-64
2023/06/19 07:59:16;;;;;;;8.98;8.07;;;26.10;99.90;;;;;;5051624;28;20056;-64
2023/06/19 08:01:42;;;;;;;10.63;9.52;;;26.30;99.90;;;;;;5047934;28;20413;-64
2023/06/19 08:04:08;;;;;;;11.23;10.27;;;26.30;99.90;;;;;;5046574;28;20029;-69
2023/06/19 08:06:33;;;;;;;12.27;9.45;;;26.30;99.90;;;;;;5049645;28;20036;-65
2023/06/19 08:08:59;;;;;;;11.73;10.52;;;26.30;99.90;;;;;;5052289;28;20096;-64
2023/06/19 08:11:25;;;;;;;10.00;9.07;;;26.20;99.90;;;;;;5051445;28;20071;-65
2023/06/19 08:13:50;;;;;;;12.20;9.35;;;26.30;99.90;;;;;;5050660;28;20115;-64
2023/06/19 08:16:17;;;;;;;9.43;8.52;;;26.30;99.90;;;;;;5051351;28;20025;-61
2023/06/19 08:18:44;;;;;;;9.75;8.38;;;26.30;99.90;;;;;;5051499;28;20120;-66
2023/06/19 08:21:10;;;;;;;9.57;7.75;;;26.30;99.90;;;;;;5050159;28;20478;-71
2023/06/19 08:23:35;;;;;;;7.35;6.75;;;26.40;99.90;;;;;;5048462;28;20108;-73
2023/06/19 08:26:02;;;;;;;7.43;6.80;;;26.40;99.90;;;;;;5049128;28;20037;-72
2023/06/19 08:28:27;;;;;;;8.70;7.85;;;26.40;99.90;;;;;;5052429;28;20086;-71
2023/06/19 08:30:53;;;;;;;8.40;7.70;;;26.40;99.90;;;;;;5049214;28;20120;-70
2023/06/19 08:33:18;;;;;;;9.30;8.50;;;26.40;99.90;;;;;;5052096;28;20031;-71
2023/06/19 08:35:46;;;;;;;10.52;8.38;;;26.50;99.90;;;;;;5046653;28;20048;-72
2023/06/19 08:38:11;;;;;;;10.85;7.32;;;26.40;99.90;;;;;;5052178;28;20024;-70
2023/06/19 08:40:37;;;;;;;8.30;7.50;;;26.50;99.90;;;;;;5049297;28;20029;-67
2023/06/19 08:43:03;;;;;;;10.10;9.10;;;26.60;99.90;;;;;;5052053;28;20036;-65
2023/06/19 08:45:29;;;;;;;9.35;6.93;;;26.60;99.90;;;;;;5047952;28;20096;-66
2023/06/19 08:47:59;;;;;;;10.30;9.25;;;26.70;99.90;;;;;;5051689;28;20037;-67
2023/06/19 08:50:25;;;;;;;7.72;7.00;;;26.70;99.90;;;;;;5053657;28;20056;-67
2023/06/19 08:52:51;;;;;;;7.97;6.53;;;26.80;99.90;;;;;;5055348;28;20039;-65
2023/06/19 08:55:16;;;;;;;7.53;6.75;;;26.70;99.90;;;;;;5045372;28;20021;-64
2023/06/19 08:57:42;;;;;;;11.52;7.55;;;26.60;99.90;;;;;;5048292;28;20021;-65
2023/06/19 09:00:10;;;;;;;10.02;8.27;;;26.70;99.90;;;;;;5044415;28;20033;-67
2023/06/19 09:02:45;;;;;;;8.27;7.18;;;26.90;99.90;;;;;;5050231;28;20029;-70
2023/06/19 09:05:13;;;;;;;7.85;6.60;;;27.00;99.90;;;;;;5046533;28;20037;-70
2023/06/19 09:07:38;;;;;;;7.35;6.65;;;27.10;99.90;;;;;;5049523;28;20037;-69
2023/06/19 09:10:14;;;;;;;8.65;7.65;;;27.20;99.90;;;;;;5053897;28;20048;-70
2023/06/19 09:12:43;;;;;;;8.30;7.50;;;27.20;99.90;;;;;;5054329;28;20037;-70
2023/06/19 09:15:14;;;;;;;8.65;7.85;;;27.30;99.90;;;;;;5054908;28;20063;-65
2023/06/19 09:17:40;;;;;;;9.10;6.75;;;27.30;99.90;;;;;;5053606;28;20111;-64
2023/06/19 09:20:07;;;;;;;8.43;7.60;;;27.40;99.90;;;;;;5053731;28;20029;-63
2023/06/19 09:22:32;;;;;;;10.27;6.35;;;27.40;99.90;;;;;;5055492;28;20073;-63
2023/06/19 09:25:02;;;;;;;7.38;6.78;;;27.40;99.90;;;;;;5051285;28;20124;-64
2023/06/19 09:27:37;;;;;;;9.77;7.60;;;27.40;99.90;;;;;;5039669;28;20033;-69
2023/06/19 09:30:05;;;;;;;7.72;6.95;;;27.50;99.90;;;;;;5037379;28;20427;-66
2023/06/19 09:32:31;;;;;;;8.20;7.43;;;27.50;99.90;;;;;;5034552;28;20429;-67
2023/06/19 09:35:00;;;;;;;7.60;6.80;;;27.50;99.90;;;;;;5043300;28;20025;-68
2023/06/19 09:37:28;;;;;;;7.30;6.70;;;27.60;99.90;;;;;;5053328;28;20044;-68
2023/06/19 09:39:55;;;;;;;7.53;6.88;;;27.50;99.90;;;;;;5044282;28;20033;-66
2023/06/19 09:42:30;;;;;;;6.90;6.30;;;27.40;99.90;;;;;;5044863;28;20036;-66
2023/06/19 09:45:11;;;;;;;7.90;6.72;;;27.60;99.90;;;;;;5045193;28;20122;-67
2023/06/19 09:47:44;;;;;;;6.63;6.00;;;27.70;99.90;;;;;;5046233;28;20037;-66
2023/06/19 09:50:13;;;;;;;8.47;6.67;;;27.80;99.90;;;;;;5049810;28;20029;-66
2023/06/19 09:52:41;;;;;;;7.50;6.80;;;28.00;99.90;;;;;;5043211;28;20024;-67
2023/06/19 09:55:09;;;;;;;6.97;6.28;;;28.10;99.90;;;;;;5053131;28;20498;-67
2023/06/19 09:57:38;;;;;;;6.72;6.15;;;28.30;99.90;;;;;;5053253;28;20024;-67
2023/06/19 10:00:13;;;;;;;8.30;7.00;;;28.60;99.90;;;;;;5045940;28;20060;-68
2023/06/19 10:02:41;;;;;;;6.82;6.22;;;28.40;99.90;;;;;;5050539;28;20032;-67
2023/06/19 10:05:12;;;;;;;9.35;6.40;;;28.60;99.90;;;;;;5051808;28;20025;-67
2023/06/19 10:07:40;;;;;;;10.00;6.25;;;28.80;99.90;;;;;;5054424;28;20083;-66
2023/06/19 10:10:08;;;;;;;9.70;6.82;;;29.00;99.90;;;;;;5045742;28;20033;-65
2023/06/19 10:12:41;;;;;;;9.50;8.60;;;29.00;99.90;;;;;;5054048;28;20048;-65
2023/06/19 10:15:15;;;;;;;7.97;7.18;;;29.00;99.90;;;;;;5055238;28;20086;-66
2023/06/19 10:17:49;;;;;;;8.98;8.13;;;28.70;99.90;;;;;;5051554;28;20031;-63
2023/06/19 10:20:32;;;;;;;9.20;8.30;;;28.90;99.90;;;;;;5044657;28;20103;-62
2023/06/19 10:23:17;;;;;;;8.75;7.93;;;28.80;99.90;;;;;;5050068;28;20052;-60
2023/06/19 10:25:44;;;;;;;9.70;8.15;;;29.00;99.90;;;;;;5042420;28;20048;-61
2023/06/19 10:28:23;;;;;;;7.95;7.15;;;29.20;99.90;;;;;;5053680;28;20029;-61
2023/06/19 10:30:53;;;;;;;8.27;7.40;;;29.30;99.90;;;;;;5047072;28;20034;-59
2023/06/19 10:33:19;;;;;;;8.85;8.15;;;29.50;99.90;;;;;;5049135;28;20470;-60
2023/06/19 10:35:45;;;;;;;9.93;9.02;;;29.10;99.90;;;;;;5045202;28;20060;-64
2023/06/19 10:38:14;;;;;;;16.77;9.27;;;28.90;99.90;;;;;;5053951;28;20060;-66
2023/06/19 10:40:39;;;;;;;15.63;9.30;;;29.10;99.90;;;;;;5052983;28;20099;-64
2023/06/19 10:43:05;;;;;;;10.48;8.32;;;29.10;99.90;;;;;;5046566;28;20171;-64
2023/06/19 10:45:32;;;;;;;9.02;8.23;;;29.30;99.90;;;;;;5053633;28;20028;-65
2023/06/19 10:48:01;;;;;;;8.73;8.07;;;29.50;99.90;;;;;;5047527;28;20036;-61
2023/06/19 10:50:27;;;;;;;8.55;7.78;;;29.40;99.90;;;;;;5045716;28;20542;-63
2023/06/19 10:52:54;;;;;;;8.98;8.15;;;29.70;99.90;;;;;;5049780;28;20033;-62
2023/06/19 10:55:21;;;;;;;9.70;8.65;;;29.90;99.90;;;;;;5042067;28;20049;-62
2023/06/19 10:57:48;;;;;;;9.95;8.50;;;29.70;99.90;;;;;;5046447;28;20041;-64
2023/06/19 11:00:31;;;;;;;9.07;8.15;;;29.90;99.90;;;;;;5050310;28;20025;-62
2023/06/19 11:02:57;;;;;;;9.85;7.93;;;30.10;99.90;;;;;;5042451;28;20437;-66
2023/06/19 11:05:25;;;;;;;8.88;8.00;;;30.30;99.90;;;;;;5052409;28;20033;-61
2023/06/19 11:07:59;;;;;;;13.57;8.55;;;30.30;99.90;;;;;;5052577;28;20029;-62
2023/06/19 11:10:27;;;;;;;14.13;8.13;;;30.60;99.90;;;;;;5050887;28;20100;-66
2023/06/19 11:12:55;;;;;;;10.25;9.00;;;30.60;99.90;;;;;;5051417;28;20159;-64
2023/06/19 11:15:28;;;;;;;8.75;8.05;;;30.80;99.90;;;;;;5048883;28;20087;-61
2023/06/19 11:17:54;;;;;;;9.27;8.38;;;30.90;99.90;;;;;;5049750;28;20116;-67
2023/06/19 11:20:20;;;;;;;8.73;7.82;;;32.50;99.90;;;;;;5039313;28;20112;-66
2023/06/19 11:22:46;;;;;;;8.80;8.05;;;34.50;99.90;;;;;;5040926;28;20541;-62
2023/06/19 11:25:11;;;;;;;8.10;7.40;;;36.30;99.90;;;;;;5031929;28;20049;-66
2023/06/19 11:27:39;;;;;;;8.65;7.75;;;36.40;99.90;;;;;;5052971;28;20057;-63
2023/06/19 11:30:07;;;;;;;8.60;8.00;;;36.50;99.90;;;;;;5049797;28;20029;-61
2023/06/19 11:32:44;;;;;;;8.30;7.65;;;35.90;99.90;;;;;;5048207;28;20112;-62
2023/06/19 11:35:11;;;;;;;9.02;8.40;;;35.20;99.90;;;;;;5051607;28;20017;-63
2023/06/19 11:37:40;;;;;;;10.07;9.18;;;35.20;99.90;;;;;;5052595;28;20061;-63
2023/06/19 11:40:14;;;;;;;10.02;9.15;;;34.40;99.90;;;;;;5048732;28;20108;-63
2023/06/19 11:42:47;;;;;;;11.07;9.10;;;35.00;99.90;;;;;;5040553;28;20025;-65
2023/06/19 11:45:13;;;;;;;;;;;37.00;99.90;;;;;;5039194;28;20375;-66
2023/06/19 11:47:39;;;;;;;11.50;10.57;;;39.00;99.90;;;;;;5035436;28;19921;-60
2023/06/19 11:50:06;;;;;;;11.50;10.40;;;39.80;99.90;;;;;;5047668;28;20029;-60
2023/06/19 11:52:31;;;;;;;10.18;9.38;;;40.70;99.90;;;;;;5044379;28;20042;-62
2023/06/19 11:54:57;;;;;;;11.40;10.55;;;40.70;99.90;;;;;;5048858;28;20031;-63
2023/06/19 11:57:22;;;;;;;10.70;9.80;;;41.70;99.90;;;;;;5048635;28;20021;-63
2023/06/19 11:59:48;;;;;;;11.50;10.60;;;41.90;99.90;;;;;;5046170;28;20036;-64
2023/06/19 12:02:14;;;;;;;10.90;10.10;;;41.20;99.90;;;;;;5041517;28;20028;-64
2023/06/19 12:04:39;;;;;;;11.48;10.50;;;42.40;99.90;;;;;;5048223;28;20033;-62
2023/06/19 12:07:06;;;;;;;10.27;9.45;;;41.00;99.90;;;;;;5042819;28;20029;-63
2023/06/19 12:09:31;;;;;;;11.15;10.15;;;39.10;99.90;;;;;;5043120;28;20616;-64
2023/06/19 12:11:58;;;;;;;10.02;9.23;;;38.30;99.90;;;;;;5045972;28;20033;-62
2023/06/19 12:14:24;;;;;;;10.90;10.00;;;38.30;99.90;;;;;;5037504;28;20472;-62
2023/06/19 12:16:50;;;;;;;9.38;8.68;;;38.80;99.90;;;;;;5049020;28;20150;-64
2023/06/19 12:19:15;;;;;;;10.27;9.57;;;39.60;99.90;;;;;;5049986;28;20021;-62
2023/06/19 12:21:41;;;;;;;10.35;9.65;;;39.80;99.90;;;;;;5042540;28;20082;-63
2023/06/19 12:24:07;;;;;;;11.50;10.65;;;38.60;99.90;;;;;;5045824;28;20040;-63
2023/06/19 12:26:37;;;;;;;10.27;9.27;;;37.70;99.90;;;;;;5049646;28;20455;-65
2023/06/19 12:29:03;;;;;;;9.65;8.80;;;36.80;99.90;;;;;;5056737;28;20100;-65
2023/06/19 12:31:29;;;;;;;10.35;9.63;;;37.20;99.90;;;;;;5041165;28;20033;-63
2023/06/19 12:33:55;;;;;;;10.98;10.00;;;36.70;99.90;;;;;;5046955;28;20392;-63
2023/06/19 12:36:21;;;;;;;11.02;10.10;;;36.70;99.90;;;;;;5054809;28;20040;-72
2023/06/19 12:38:48;;;;;;;8.88;8.27;;;36.60;99.90;;;;;;5050941;28;20112;-65
2023/06/19 12:41:14;;;;;;;9.52;8.93;;;36.90;99.90;;;;;;5053188;28;20083;-64
2023/06/19 12:43:40;;;;;;;9.70;8.90;;;36.20;99.90;;;;;;5057111;28;20402;-64
2023/06/19 12:46:06;;;;;;;10.48;9.77;;;36.30;99.90;;;;;;5053670;28;20072;-64